createdAt,value
2017-08-21T00:00:49.236Z,3.60
2017-08-21T00:03:17.492Z,2.80
2017-08-21T00:05:45.788Z,2.23
2017-08-21T00:08:14.055Z,2.73
2017-08-21T00:10:42.342Z,2.60
2017-08-21T00:13:10.593Z,2.40
2017-08-21T00:15:39.016Z,2.40
2017-08-21T00:18:07.288Z,2.40
2017-08-21T00:20:35.551Z,2.53
2017-08-21T00:23:03.825Z,2.47
2017-08-21T00:25:32.084Z,2.20
2017-08-21T00:28:00.501Z,2.07
2017-08-21T00:30:28.763Z,2.13
2017-08-21T00:32:57.101Z,2.07
2017-08-21T00:35:25.352Z,2.33
2017-08-21T00:37:54.424Z,2.40
2017-08-21T00:40:22.691Z,2.50
2017-08-21T00:42:51.089Z,2.37
2017-08-21T00:45:19.346Z,2.93
2017-08-21T00:47:47.650Z,3.00
2017-08-21T00:50:15.940Z,2.13
2017-08-21T00:52:44.212Z,2.73
2017-08-21T00:55:13.295Z,1.87
2017-08-21T00:57:41.551Z,2.20
2017-08-21T01:00:09.834Z,2.10
2017-08-21T01:02:38.124Z,2.10
2017-08-21T01:05:06.495Z,2.80
2017-08-21T01:07:34.745Z,2.47
2017-08-21T01:10:03.052Z,2.63
2017-08-21T01:12:31.425Z,2.33
2017-08-21T01:14:59.693Z,2.40
2017-08-21T01:17:28.085Z,2.47
2017-08-21T01:19:56.368Z,2.67
2017-08-21T01:22:24.746Z,2.70
2017-08-21T01:24:53.019Z,2.23
2017-08-21T01:27:21.308Z,2.67
2017-08-21T01:29:49.673Z,2.97
2017-08-21T01:32:18.073Z,3.20
2017-08-21T01:34:46.333Z,2.83
2017-08-21T01:37:14.604Z,1.93
2017-08-21T01:39:42.990Z,2.17
2017-08-21T01:42:11.265Z,2.40
2017-08-21T01:44:39.649Z,2.23
2017-08-21T01:47:07.931Z,2.57
2017-08-21T01:49:36.311Z,2.10
2017-08-21T01:52:04.564Z,1.40
2017-08-21T01:54:32.952Z,2.40
2017-08-21T01:57:01.250Z,2.60
2017-08-21T01:59:29.533Z,2.33
2017-08-21T02:01:57.882Z,1.80
2017-08-21T02:04:26.277Z,2.27
2017-08-21T02:06:54.536Z,2.00
2017-08-21T02:09:22.842Z,1.80
2017-08-21T02:11:51.116Z,2.70
2017-08-21T02:14:19.487Z,2.57
2017-08-21T02:16:47.900Z,2.23
2017-08-21T02:19:16.954Z,2.57
2017-08-21T02:21:45.338Z,2.43
2017-08-21T02:24:13.717Z,2.43
2017-08-21T02:26:42.020Z,2.43
2017-08-21T02:29:11.063Z,2.53
2017-08-21T02:31:39.370Z,2.93
2017-08-21T02:34:07.745Z,2.80
2017-08-21T02:36:36.040Z,2.93
2017-08-21T02:39:05.095Z,2.13
2017-08-21T02:41:33.362Z,2.37
2017-08-21T02:44:01.656Z,2.23
2017-08-21T02:46:29.948Z,2.53
2017-08-21T02:48:58.322Z,2.30
2017-08-21T02:51:26.698Z,2.17
2017-08-21T02:53:54.990Z,2.10
2017-08-21T02:56:23.368Z,2.17
2017-08-21T02:58:51.644Z,2.30
2017-08-21T03:01:19.954Z,2.50
2017-08-21T03:03:48.978Z,2.70
2017-08-21T03:06:17.281Z,3.00
2017-08-21T03:08:45.578Z,2.70
2017-08-21T03:11:13.856Z,2.67
2017-08-21T03:13:42.934Z,2.70
2017-08-21T03:16:11.237Z,2.93
2017-08-21T03:18:40.324Z,2.63
2017-08-21T03:21:08.574Z,2.73
2017-08-21T03:23:36.970Z,2.73
2017-08-21T03:26:05.244Z,3.07
2017-08-21T03:28:33.525Z,2.53
2017-08-21T03:31:01.810Z,3.13
2017-08-21T03:33:30.182Z,2.63
2017-08-21T03:35:58.481Z,2.20
2017-08-21T03:38:27.554Z,2.97
2017-08-21T03:40:55.818Z,3.10
2017-08-21T03:43:24.100Z,2.30
2017-08-21T03:45:52.475Z,2.80
2017-08-21T03:48:20.740Z,1.93
2017-08-21T03:50:49.028Z,3.17
2017-08-21T03:53:17.389Z,2.77
2017-08-21T03:55:45.647Z,3.40
2017-08-21T03:58:13.936Z,2.40
2017-08-21T04:00:42.316Z,2.97
2017-08-21T04:03:10.595Z,2.80
2017-08-21T04:05:38.975Z,2.50
2017-08-21T04:08:07.257Z,2.60
2017-08-21T04:10:35.552Z,2.60
2017-08-21T04:13:03.828Z,2.47
2017-08-21T04:15:32.898Z,2.30
2017-08-21T04:18:01.201Z,2.63
2017-08-21T04:20:29.454Z,2.43
2017-08-21T04:22:57.831Z,3.10
2017-08-21T04:25:26.118Z,2.43
2017-08-21T04:27:54.504Z,2.80
2017-08-21T04:30:22.774Z,3.40
2017-08-21T04:32:51.053Z,3.43
2017-08-21T04:35:19.355Z,3.73
2017-08-21T04:37:48.416Z,3.53
2017-08-21T04:40:16.816Z,2.87
2017-08-21T04:42:45.175Z,3.33
2017-08-21T04:45:13.569Z,3.00
2017-08-21T04:47:41.832Z,2.70
2017-08-21T04:50:10.180Z,3.37
2017-08-21T04:52:38.457Z,2.90
2017-08-21T04:55:06.721Z,3.13
2017-08-21T04:57:35.066Z,3.40
2017-08-21T05:00:03.322Z,3.73
2017-08-21T05:02:31.608Z,4.10
2017-08-21T05:04:59.876Z,3.70
2017-08-21T05:07:28.258Z,3.73
2017-08-21T05:09:56.552Z,3.47
2017-08-21T05:12:24.877Z,3.37
2017-08-21T05:14:53.162Z,3.37
2017-08-21T05:17:21.474Z,3.30
2017-08-21T05:19:49.862Z,3.40
2017-08-21T05:22:18.917Z,3.30
2017-08-21T05:24:47.333Z,3.40
2017-08-21T05:27:15.576Z,3.60
2017-08-21T05:29:43.985Z,4.20
2017-08-21T05:32:12.260Z,3.57
2017-08-21T05:34:40.539Z,3.90
2017-08-21T05:37:08.814Z,4.23
2017-08-21T05:39:37.210Z,4.00
2017-08-21T05:42:06.246Z,4.67
2017-08-21T05:44:34.557Z,4.87
2017-08-21T05:47:02.836Z,4.80
2017-08-21T05:49:31.113Z,5.00
2017-08-21T05:51:59.488Z,4.30
2017-08-21T05:54:27.772Z,5.30
2017-08-21T05:56:56.051Z,4.13
2017-08-21T05:59:24.405Z,4.40
2017-08-21T06:01:52.728Z,5.20
2017-08-21T06:04:21.104Z,4.57
2017-08-21T06:06:49.404Z,4.53
2017-08-21T06:09:17.752Z,4.50
2017-08-21T06:11:46.056Z,5.30
2017-08-21T06:14:14.334Z,5.60
2017-08-21T06:16:42.583Z,5.17
2017-08-21T06:19:10.867Z,4.10
2017-08-21T06:21:39.906Z,4.50
2017-08-21T06:24:08.214Z,4.87
2017-08-21T06:26:36.505Z,4.80
2017-08-21T06:29:04.859Z,4.67
2017-08-21T06:31:33.132Z,4.37
2017-08-21T06:34:01.386Z,4.33
2017-08-21T06:36:29.696Z,4.13
2017-08-21T06:38:57.967Z,4.23
2017-08-21T06:41:26.357Z,5.03
2017-08-21T06:43:54.670Z,4.37
2017-08-21T06:46:23.722Z,4.90
2017-08-21T06:48:52.010Z,4.80
2017-08-21T06:51:20.390Z,5.70
2017-08-21T06:53:48.656Z,5.40
2017-08-21T06:56:16.966Z,5.37
2017-08-21T06:58:45.250Z,5.23
2017-08-21T07:01:13.497Z,4.50
2017-08-21T07:03:41.872Z,4.60
2017-08-21T07:06:10.148Z,5.27
2017-08-21T07:08:38.421Z,4.60
2017-08-21T07:11:06.700Z,5.30
2017-08-21T07:13:35.188Z,6.00
2017-08-21T07:16:03.475Z,4.70
2017-08-21T07:18:31.760Z,4.57
2017-08-21T07:21:00.030Z,5.20
2017-08-21T07:23:28.289Z,4.30
2017-08-21T07:25:57.348Z,5.47
2017-08-21T07:28:25.628Z,4.60
2017-08-21T07:30:53.920Z,5.47
2017-08-21T07:33:22.209Z,5.00
2017-08-21T07:35:50.566Z,4.73
2017-08-21T07:38:18.843Z,3.87
2017-08-21T07:40:47.148Z,3.93
2017-08-21T07:43:15.508Z,3.77
2017-08-21T07:45:43.778Z,3.73
2017-08-21T07:48:12.221Z,4.03
2017-08-21T07:50:40.490Z,4.17
2017-08-21T07:53:08.831Z,3.87
2017-08-21T07:55:37.137Z,3.57
2017-08-21T07:58:06.244Z,3.53
2017-08-21T08:00:34.596Z,3.63
2017-08-21T08:03:02.940Z,3.60
2017-08-21T08:05:31.336Z,3.23
2017-08-21T08:07:59.604Z,3.53
2017-08-21T08:10:28.004Z,3.07
2017-08-21T08:12:56.257Z,3.23
2017-08-21T08:15:24.643Z,3.03
2017-08-21T08:17:52.912Z,2.33
2017-08-21T08:20:21.298Z,2.57
2017-08-21T08:22:49.568Z,2.63
2017-08-21T08:25:17.861Z,2.70
2017-08-21T08:27:46.233Z,3.20
2017-08-21T08:30:14.493Z,2.80
2017-08-21T08:32:42.779Z,3.07
2017-08-21T08:35:11.064Z,1.97
2017-08-21T08:37:39.446Z,2.43
2017-08-21T08:40:07.704Z,2.90
2017-08-21T08:42:36.114Z,2.43
2017-08-21T08:45:04.425Z,2.40
2017-08-21T08:47:33.564Z,2.93
2017-08-21T08:50:01.840Z,2.83
2017-08-21T08:52:30.225Z,2.70
2017-08-21T08:54:58.502Z,2.77
2017-08-21T08:57:26.760Z,2.33
2017-08-21T08:59:55.082Z,2.80
2017-08-21T09:02:23.348Z,2.43
2017-08-21T09:04:51.728Z,2.40
2017-08-21T09:07:19.990Z,2.47
2017-08-21T09:09:48.478Z,2.70
2017-08-21T09:12:16.746Z,2.13
2017-08-21T09:14:45.063Z,1.80
2017-08-21T09:17:14.122Z,2.60
2017-08-21T09:19:42.453Z,2.33
2017-08-21T09:22:10.784Z,2.40
2017-08-21T09:24:39.030Z,2.30
2017-08-21T09:27:07.314Z,2.30
2017-08-21T09:29:35.614Z,2.10
2017-08-21T09:32:03.994Z,2.47
2017-08-21T09:34:32.266Z,2.00
2017-08-21T09:37:00.676Z,2.43
2017-08-21T09:39:29.750Z,2.00
2017-08-21T09:41:58.022Z,2.50
2017-08-21T09:44:26.402Z,2.50
2017-08-21T09:46:55.083Z,2.07
2017-08-21T09:49:23.368Z,2.23
2017-08-21T09:51:51.649Z,1.80
2017-08-21T09:54:20.034Z,2.23
2017-08-21T09:56:48.298Z,2.43
2017-08-21T09:59:53.445Z,2.33
2017-08-21T10:02:21.726Z,2.37
2017-08-21T10:04:50.110Z,2.30
2017-08-21T10:07:18.404Z,2.20
2017-08-21T10:09:46.753Z,1.80
2017-08-21T10:12:15.025Z,2.27
2017-08-21T10:14:43.309Z,2.13
2017-08-21T10:17:11.588Z,2.00
2017-08-21T10:19:39.861Z,2.10
2017-08-21T10:22:08.150Z,2.30
2017-08-21T10:24:36.511Z,2.00
2017-08-21T10:27:04.898Z,1.93
2017-08-21T10:29:33.255Z,2.40
2017-08-21T10:32:01.558Z,2.00
2017-08-21T10:34:29.827Z,2.00
2017-08-21T10:36:58.209Z,2.20
2017-08-21T10:39:26.490Z,1.80
2017-08-21T10:41:54.865Z,1.97
2017-08-21T10:44:23.153Z,2.23
2017-08-21T10:46:51.481Z,1.90
2017-08-21T10:49:19.873Z,1.73
2017-08-21T10:51:48.135Z,2.60
2017-08-21T10:54:16.420Z,1.90
2017-08-21T10:56:44.702Z,2.43
2017-08-21T10:59:13.073Z,1.63
2017-08-21T11:01:41.356Z,1.53
2017-08-21T11:04:09.605Z,1.93
2017-08-21T11:06:37.915Z,2.33
2017-08-21T11:09:06.174Z,1.70
2017-08-21T11:11:34.471Z,1.80
2017-08-21T11:14:02.755Z,1.83
2017-08-21T11:16:31.124Z,1.80
2017-08-21T11:18:59.402Z,2.23
2017-08-21T11:21:27.708Z,2.40
2017-08-21T11:23:55.956Z,2.30
2017-08-21T11:26:24.225Z,2.10
2017-08-21T11:28:52.508Z,2.10
2017-08-21T11:31:20.768Z,2.13
2017-08-21T11:33:49.141Z,1.80
2017-08-21T11:36:17.438Z,1.97
2017-08-21T11:38:45.726Z,2.33
2017-08-21T11:41:13.980Z,1.60
2017-08-21T11:43:42.373Z,1.83
2017-08-21T11:46:10.667Z,1.73
2017-08-21T11:48:39.033Z,1.90
2017-08-21T11:51:07.313Z,2.00
2017-08-21T11:53:35.576Z,2.03
2017-08-21T11:56:03.970Z,2.00
2017-08-21T11:58:32.256Z,1.50
2017-08-21T12:01:00.621Z,2.00
2017-08-21T12:03:28.899Z,1.70
2017-08-21T12:05:57.275Z,1.83
2017-08-21T12:08:25.564Z,1.63
2017-08-21T12:10:53.938Z,1.80
2017-08-21T12:13:22.197Z,1.57
2017-08-21T12:15:50.547Z,1.80
2017-08-21T12:18:18.871Z,2.10
2017-08-21T12:20:47.142Z,1.73
2017-08-21T12:23:15.530Z,2.27
2017-08-21T12:25:43.788Z,1.83
2017-08-21T12:28:12.076Z,2.17
2017-08-21T12:30:40.463Z,1.60
2017-08-21T12:33:08.747Z,1.87
2017-08-21T12:35:36.998Z,2.77
2017-08-21T12:38:05.378Z,1.80
2017-08-21T12:40:33.661Z,2.30
2017-08-21T12:43:01.942Z,2.00
2017-08-21T12:45:30.355Z,1.50
2017-08-21T12:47:58.706Z,2.40
2017-08-21T12:50:27.081Z,1.83
2017-08-21T12:52:55.353Z,1.57
2017-08-21T12:55:23.748Z,1.97
2017-08-21T12:57:52.119Z,1.97
2017-08-21T13:00:20.491Z,1.90
2017-08-21T13:02:48.773Z,1.90
2017-08-21T13:05:17.165Z,1.93
2017-08-21T13:07:45.430Z,1.87
2017-08-21T13:10:13.680Z,1.63
2017-08-21T13:12:41.970Z,2.00
2017-08-21T13:15:10.267Z,2.03
2017-08-21T13:17:38.647Z,2.17
2017-08-21T13:20:06.910Z,2.20
2017-08-21T13:22:35.211Z,1.77
2017-08-21T13:25:03.574Z,1.70
2017-08-21T13:27:31.958Z,2.10
2017-08-21T13:30:00.231Z,1.77
2017-08-21T13:32:28.604Z,1.63
2017-08-21T13:34:56.897Z,1.77
2017-08-21T13:37:25.166Z,1.93
2017-08-21T13:39:53.456Z,1.70
2017-08-21T13:42:21.846Z,1.60
2017-08-21T13:44:50.112Z,1.90
2017-08-21T13:47:18.578Z,1.83
2017-08-21T13:49:46.961Z,1.80
2017-08-21T13:52:15.235Z,1.90
2017-08-21T13:54:43.520Z,1.30
2017-08-21T13:57:11.789Z,1.80
2017-08-21T13:59:40.174Z,1.60
2017-08-21T14:02:08.433Z,1.60
2017-08-21T14:04:36.697Z,1.63
2017-08-21T14:07:05.013Z,1.83
2017-08-21T14:09:33.385Z,1.67
2017-08-21T14:12:01.667Z,2.00
2017-08-21T14:14:29.916Z,1.60
2017-08-21T14:16:58.207Z,2.07
2017-08-21T14:19:26.493Z,2.23
2017-08-21T14:21:54.781Z,2.50
2017-08-21T14:24:23.144Z,2.60
2017-08-21T14:26:51.527Z,2.50
2017-08-21T14:29:19.806Z,2.40
2017-08-21T14:31:48.069Z,2.30
2017-08-21T14:34:16.462Z,2.20
2017-08-21T14:36:44.736Z,2.60
2017-08-21T14:39:13.120Z,2.33
2017-08-21T14:41:41.386Z,1.97
2017-08-21T14:44:09.778Z,2.30
2017-08-21T14:46:38.037Z,2.23
2017-08-21T14:49:06.369Z,1.80
2017-08-21T14:51:34.713Z,2.23
2017-08-21T14:54:03.095Z,2.73
2017-08-21T14:56:31.353Z,2.03
2017-08-21T14:58:59.739Z,1.70
2017-08-21T15:01:28.016Z,1.90
2017-08-21T15:03:56.293Z,1.93
2017-08-21T15:06:24.670Z,1.60
2017-08-21T15:08:52.949Z,1.70
2017-08-21T15:11:21.341Z,1.50
2017-08-21T15:13:49.710Z,1.50
2017-08-21T15:16:18.093Z,1.50
2017-08-21T15:18:46.363Z,1.77
2017-08-21T15:21:14.745Z,1.60
2017-08-21T15:23:43.004Z,1.47
2017-08-21T15:26:11.276Z,2.07
2017-08-21T15:28:39.576Z,1.70
2017-08-21T15:31:07.866Z,1.80
2017-08-21T15:33:36.145Z,1.40
2017-08-21T15:36:04.410Z,1.50
2017-08-21T15:38:32.703Z,1.50
2017-08-21T15:41:01.066Z,1.73
2017-08-21T15:43:29.442Z,1.30
2017-08-21T15:45:57.697Z,1.50
2017-08-21T15:48:25.995Z,1.87
2017-08-21T15:50:54.298Z,1.33
2017-08-21T15:53:22.561Z,1.33
2017-08-21T15:55:50.841Z,1.33
2017-08-21T15:58:19.211Z,1.70
2017-08-21T16:00:47.507Z,1.60
2017-08-21T16:03:15.784Z,1.37
2017-08-21T16:05:44.060Z,1.40
2017-08-21T16:08:12.340Z,1.33
2017-08-21T16:10:40.684Z,1.40
2017-08-21T16:13:08.955Z,1.60
2017-08-21T16:15:37.232Z,1.13
2017-08-21T16:18:05.619Z,2.03
2017-08-21T16:20:34.090Z,1.73
2017-08-21T16:23:02.471Z,1.40
2017-08-21T16:25:30.856Z,1.60
2017-08-21T16:27:59.223Z,1.83
2017-08-21T16:30:27.497Z,1.70
2017-08-21T16:32:55.894Z,1.53
2017-08-21T16:35:24.160Z,1.90
2017-08-21T16:37:52.565Z,1.30
2017-08-21T16:40:20.815Z,1.50
2017-08-21T16:42:49.127Z,2.20
2017-08-21T16:45:17.507Z,2.07
2017-08-21T16:47:45.860Z,1.90
2017-08-21T16:50:14.237Z,1.43
2017-08-21T16:52:42.498Z,1.90
2017-08-21T16:55:10.785Z,1.60
2017-08-21T16:57:39.067Z,1.50
2017-08-21T17:00:07.374Z,1.90
2017-08-21T17:02:35.662Z,1.80
2017-08-21T17:05:03.996Z,1.90
2017-08-21T17:07:32.378Z,1.90
2017-08-21T17:10:00.771Z,1.73
2017-08-21T17:12:29.034Z,2.20
2017-08-21T17:14:57.362Z,1.80
2017-08-21T17:17:25.746Z,2.27
2017-08-21T17:19:54.022Z,2.33
2017-08-21T17:22:22.402Z,1.77
2017-08-21T17:24:50.678Z,1.90
2017-08-21T17:27:19.063Z,2.07
2017-08-21T17:29:47.330Z,1.70
2017-08-21T17:32:15.703Z,1.60
2017-08-21T17:34:44.088Z,1.80
2017-08-21T17:37:12.417Z,1.53
2017-08-21T17:39:40.704Z,1.70
2017-08-21T17:42:09.036Z,1.70
2017-08-21T17:44:37.349Z,1.70
2017-08-21T17:47:05.634Z,1.50
2017-08-21T17:49:34.015Z,1.53
2017-08-21T17:52:02.380Z,1.80
2017-08-21T17:54:30.692Z,1.77
2017-08-21T17:56:59.033Z,2.33
2017-08-21T17:59:27.428Z,2.53
2017-08-21T18:01:55.802Z,2.17
2017-08-21T18:04:24.188Z,2.80
2017-08-21T18:06:52.552Z,2.60
2017-08-21T18:09:20.940Z,3.23
2017-08-21T18:11:49.315Z,2.63
2017-08-21T18:14:17.573Z,3.10
2017-08-21T18:16:45.868Z,2.10
2017-08-21T18:19:14.129Z,2.47
2017-08-21T18:21:42.569Z,2.00
2017-08-21T18:24:10.874Z,2.20
2017-08-21T18:26:39.174Z,2.43
2017-08-21T18:29:07.445Z,2.23
2017-08-21T18:31:35.845Z,2.17
2017-08-21T18:34:04.198Z,2.40
2017-08-21T18:36:32.576Z,2.43
2017-08-21T18:39:00.833Z,2.57
2017-08-21T18:41:29.115Z,2.40
2017-08-21T18:43:57.384Z,2.30
2017-08-21T18:46:25.670Z,2.40
2017-08-21T18:48:54.074Z,2.40
2017-08-21T18:51:22.425Z,2.20
2017-08-21T18:53:50.792Z,3.47
2017-08-21T18:56:19.046Z,2.23
2017-08-21T18:58:47.469Z,2.60
2017-08-21T19:01:15.771Z,2.70
2017-08-21T19:03:44.072Z,2.30
2017-08-21T19:06:12.395Z,2.37
2017-08-21T19:08:40.770Z,2.50
2017-08-21T19:11:09.063Z,2.63
2017-08-21T19:13:37.519Z,2.57
2017-08-21T19:16:05.787Z,3.00
2017-08-21T19:18:34.164Z,2.43
2017-08-21T19:21:02.483Z,2.40
2017-08-21T19:23:30.800Z,2.33
2017-08-21T19:25:59.077Z,3.00
2017-08-21T19:28:27.354Z,2.80
2017-08-21T19:30:55.641Z,2.37
2017-08-21T19:33:23.934Z,2.33
2017-08-21T19:35:52.194Z,3.07
2017-08-21T19:38:20.482Z,2.63
2017-08-21T19:40:48.759Z,2.90
2017-08-21T19:43:17.140Z,2.27
2017-08-21T19:45:45.405Z,2.50
2017-08-21T19:48:13.714Z,2.53
2017-08-21T19:50:42.001Z,2.30
2017-08-21T19:53:10.262Z,2.30
2017-08-21T19:55:38.549Z,2.40
2017-08-21T19:58:06.820Z,2.60
2017-08-21T20:00:35.101Z,2.40
2017-08-21T20:03:03.355Z,2.97
2017-08-21T20:05:31.735Z,2.60
2017-08-21T20:08:00.106Z,2.60
2017-08-21T20:10:28.407Z,2.70
2017-08-21T20:12:56.681Z,2.97
2017-08-21T20:15:24.945Z,2.53
2017-08-21T20:17:53.317Z,2.70
2017-08-21T20:20:21.679Z,2.50
2017-08-21T20:22:50.171Z,2.63
2017-08-21T20:25:18.449Z,3.07
2017-08-21T20:27:46.743Z,3.10
2017-08-21T20:30:15.025Z,2.60
2017-08-21T20:32:43.390Z,2.90
2017-08-21T20:35:11.748Z,2.80
2017-08-21T20:37:40.039Z,2.30
2017-08-21T20:40:08.430Z,2.57
2017-08-21T20:42:36.712Z,3.00
2017-08-21T20:45:05.097Z,3.50
2017-08-21T20:47:33.347Z,2.97
2017-08-21T20:50:01.630Z,2.60
2017-08-21T20:52:29.921Z,3.27
2017-08-21T20:54:58.248Z,3.00
2017-08-21T20:57:26.537Z,3.70
2017-08-21T20:59:54.843Z,3.30
2017-08-21T21:02:23.212Z,3.40
2017-08-21T21:04:51.514Z,3.73
2017-08-21T21:07:19.898Z,3.70
2017-08-21T21:09:48.254Z,2.87
2017-08-21T21:12:16.535Z,3.20
2017-08-21T21:14:44.805Z,3.23
2017-08-21T21:17:13.226Z,3.80
2017-08-21T21:19:41.494Z,3.30
2017-08-21T21:22:09.846Z,3.90
2017-08-21T21:24:38.153Z,3.77
2017-08-21T21:27:06.409Z,3.20
2017-08-21T21:29:34.777Z,3.47
2017-08-21T21:32:03.045Z,3.30
2017-08-21T21:34:31.431Z,3.87
2017-08-21T21:36:59.705Z,3.37
2017-08-21T21:39:28.111Z,3.40
2017-08-21T21:41:56.464Z,3.13
2017-08-21T21:44:24.862Z,3.10
2017-08-21T21:46:53.223Z,3.17
2017-08-21T21:49:21.500Z,3.87
2017-08-21T21:51:49.884Z,3.53
2017-08-21T21:54:18.158Z,2.70
2017-08-21T21:56:46.639Z,3.80
2017-08-21T21:59:14.943Z,3.30
2017-08-21T22:01:43.293Z,2.97
2017-08-21T22:04:11.562Z,2.73
2017-08-21T22:06:39.957Z,3.33
2017-08-21T22:09:08.346Z,3.93
2017-08-21T22:11:36.616Z,3.17
2017-08-21T22:14:04.993Z,3.10
2017-08-21T22:16:33.364Z,3.27
2017-08-21T22:19:01.663Z,3.80
2017-08-21T22:21:30.032Z,3.07
2017-08-21T22:23:58.313Z,3.23
2017-08-21T22:26:26.599Z,2.73
2017-08-21T22:28:54.961Z,2.97
2017-08-21T22:31:23.218Z,2.70
2017-08-21T22:33:51.515Z,2.80
2017-08-21T22:36:19.816Z,2.70
2017-08-21T22:38:48.191Z,2.47
2017-08-21T22:41:16.463Z,1.80
2017-08-21T22:43:44.836Z,1.93
2017-08-21T22:46:13.243Z,2.00
2017-08-21T22:48:41.604Z,2.10
2017-08-21T22:51:09.906Z,1.70
2017-08-21T22:53:38.340Z,1.80
2017-08-21T22:56:06.728Z,2.00
2017-08-21T22:58:35.112Z,1.50
2017-08-21T23:03:56.531Z,1.57
2017-08-21T23:06:24.824Z,1.73
2017-08-21T23:08:53.198Z,1.90
2017-08-21T23:11:21.574Z,1.77
2017-08-21T23:13:49.827Z,2.13
2017-08-21T23:16:18.138Z,1.80
2017-08-21T23:18:46.418Z,1.90
2017-08-21T23:21:14.780Z,2.10
2017-08-21T23:23:43.069Z,1.90
2017-08-21T23:26:11.347Z,2.03
2017-08-21T23:28:39.625Z,2.00
2017-08-21T23:31:08.006Z,1.90
2017-08-21T23:33:36.282Z,1.80
2017-08-21T23:36:04.547Z,1.77
2017-08-21T23:38:32.928Z,2.40
2017-08-21T23:41:02.238Z,1.70
2017-08-21T23:43:30.510Z,1.90
2017-08-21T23:45:58.829Z,2.20
2017-08-21T23:48:27.098Z,2.43
2017-08-21T23:50:55.418Z,2.40
2017-08-21T23:53:23.773Z,2.57
2017-08-21T23:55:52.028Z,2.07
2017-08-21T23:58:20.317Z,2.47
